Terminal Aerodrome Forecast
Issued by NWS Northern Indiana

Home | Current Version | Previous Version | Graphics & Text | Print | Product List | Glossary On
Versions: 1 2 3 4 5 6 7 8 9 10 11 12 13 14 15
000
FTUS43 KIWX 171700
TAFFWA
TAF
KFWA 171730Z 1718/1818 26015G22KT P6SM SCT025 BKN050
     FM172300 26014G22KT P6SM BKN035
     FM180400 28012G17KT P6SM VCSH OVC020
     FM181400 32014G25KT P6SM BKN030=

USA.gov is the U.S. government's official web portal to all federal, state and local government web resources and services.